createdAt,value
2019-05-20T00:00:00.132Z,12.60
2019-05-20T00:03:02.375Z,12.60
2019-05-20T00:06:04.757Z,12.60
2019-05-20T00:09:07.014Z,12.50
2019-05-20T00:12:09.353Z,12.50
2019-05-20T00:15:11.615Z,12.50
2019-05-20T00:18:13.893Z,12.50
2019-05-20T00:21:16.154Z,12.40
2019-05-20T00:24:18.497Z,12.50
2019-05-20T00:27:20.762Z,12.40
2019-05-20T00:30:23.003Z,12.40
2019-05-20T00:33:25.220Z,12.40
2019-05-20T00:36:27.552Z,12.40
2019-05-20T00:39:29.840Z,12.40
2019-05-20T00:42:32.103Z,12.30
2019-05-20T00:45:34.428Z,12.30
2019-05-20T00:48:36.727Z,12.30
2019-05-20T00:51:39.047Z,12.30
2019-05-20T00:54:41.507Z,12.30
2019-05-20T00:57:43.770Z,12.30
2019-05-20T01:00:46.083Z,12.20
2019-05-20T01:03:48.299Z,12.30
2019-05-20T01:06:50.607Z,12.20
2019-05-20T01:09:52.882Z,12.20
2019-05-20T01:12:55.191Z,12.20
2019-05-20T01:15:57.504Z,12.20
2019-05-20T01:18:59.699Z,12.20
2019-05-20T01:22:01.991Z,12.20
2019-05-20T01:25:04.413Z,12.20
2019-05-20T01:28:06.726Z,12.20
2019-05-20T01:31:09.056Z,12.20
2019-05-20T01:34:11.377Z,12.20
2019-05-20T01:37:13.636Z,12.20
2019-05-20T01:40:15.927Z,12.20
2019-05-20T01:43:18.224Z,12.20
2019-05-20T01:46:20.448Z,12.10
2019-05-20T01:49:22.727Z,12.10
2019-05-20T01:52:25.020Z,12.10
2019-05-20T01:55:27.266Z,12.10
2019-05-20T01:58:29.511Z,12.10
2019-05-20T02:01:31.780Z,12.10
2019-05-20T02:04:33.997Z,12.10
2019-05-20T02:07:36.275Z,12.10
2019-05-20T02:10:38.523Z,12.10
2019-05-20T02:13:46.407Z,12.10
2019-05-20T02:16:48.623Z,12.10
2019-05-20T02:19:50.863Z,12.10
2019-05-20T02:22:54.357Z,12.10
2019-05-20T02:25:56.597Z,12.10
2019-05-20T02:28:58.804Z,12.10
2019-05-20T02:32:01.076Z,12.10
2019-05-20T02:35:03.500Z,12.10
2019-05-20T02:38:05.738Z,12.10
2019-05-20T02:41:08.018Z,12.10
2019-05-20T02:44:10.292Z,12.10
2019-05-20T02:47:12.593Z,12.10
2019-05-20T02:50:14.854Z,12.10
2019-05-20T02:53:17.080Z,12.10
2019-05-20T02:56:19.328Z,12.10
2019-05-20T02:59:21.574Z,12.10
2019-05-20T03:02:23.837Z,12.10
2019-05-20T03:05:26.083Z,12.10
2019-05-20T03:08:28.416Z,12.10
2019-05-20T03:11:30.762Z,12.10
2019-05-20T03:14:32.955Z,12.10
2019-05-20T03:17:35.209Z,12.10
2019-05-20T03:20:37.449Z,12.10
2019-05-20T03:23:39.659Z,12.20
2019-05-20T03:26:41.895Z,12.20
2019-05-20T03:29:44.132Z,12.20
2019-05-20T03:32:46.382Z,12.20
2019-05-20T03:35:48.677Z,12.20
2019-05-20T03:38:50.913Z,12.10
2019-05-20T03:41:53.136Z,12.20
2019-05-20T03:44:55.363Z,12.20
2019-05-20T03:47:57.594Z,12.20
2019-05-20T03:50:59.831Z,12.20
2019-05-20T03:54:02.065Z,12.20
2019-05-20T03:57:04.343Z,12.20
2019-05-20T04:00:06.616Z,12.20
2019-05-20T04:03:08.877Z,12.20
2019-05-20T04:06:11.140Z,12.20
2019-05-20T04:09:13.391Z,12.10
2019-05-20T04:12:15.693Z,12.10
2019-05-20T04:15:17.949Z,12.10
2019-05-20T04:18:20.233Z,12.10
2019-05-20T04:21:22.486Z,12.10
2019-05-20T04:24:24.736Z,12.10
2019-05-20T04:27:27.029Z,12.00
2019-05-20T04:30:29.291Z,12.00
2019-05-20T04:33:31.572Z,12.00
2019-05-20T04:36:33.916Z,12.00
2019-05-20T04:39:36.199Z,12.00
2019-05-20T04:42:38.440Z,12.00
2019-05-20T04:45:40.697Z,12.00
2019-05-20T04:48:42.916Z,11.90
2019-05-20T04:51:45.226Z,11.90
2019-05-20T04:54:47.461Z,11.90
2019-05-20T04:57:49.691Z,11.90
2019-05-20T05:00:54.084Z,11.90
2019-05-20T05:03:56.321Z,11.90
2019-05-20T05:06:58.536Z,11.90
2019-05-20T05:10:00.848Z,11.90
2019-05-20T05:13:03.129Z,11.90
2019-05-20T05:16:05.413Z,11.90
2019-05-20T05:19:07.656Z,11.90
2019-05-20T05:22:09.905Z,11.90
2019-05-20T05:25:12.154Z,11.90
2019-05-20T05:28:14.443Z,11.90
2019-05-20T05:31:16.656Z,11.90
2019-05-20T05:34:18.945Z,12.00
2019-05-20T05:37:21.913Z,12.00
2019-05-20T05:40:27.755Z,12.00
2019-05-20T05:43:30.020Z,12.00
2019-05-20T05:46:32.255Z,12.00
2019-05-20T05:49:34.603Z,12.00
2019-05-20T05:52:36.875Z,12.00
2019-05-20T05:55:39.135Z,12.00
2019-05-20T05:58:41.417Z,12.00
2019-05-20T06:01:43.731Z,12.00
2019-05-20T06:04:46.042Z,12.00
2019-05-20T06:07:48.337Z,12.00
2019-05-20T06:10:50.597Z,12.00
2019-05-20T06:13:52.880Z,12.00
2019-05-20T06:16:55.166Z,12.00
2019-05-20T06:19:57.438Z,12.00
2019-05-20T06:22:59.699Z,12.00
2019-05-20T06:26:01.988Z,12.10
2019-05-20T06:29:04.229Z,12.10
2019-05-20T06:32:06.494Z,12.10
2019-05-20T06:35:08.806Z,12.10
2019-05-20T06:38:14.521Z,12.10
2019-05-20T06:41:16.777Z,12.10
2019-05-20T06:44:19.069Z,12.10
2019-05-20T06:47:21.355Z,12.10
2019-05-20T06:50:23.639Z,12.10
2019-05-20T06:53:25.957Z,12.10
2019-05-20T06:56:28.231Z,12.10
2019-05-20T06:59:30.523Z,12.10
2019-05-20T07:02:32.846Z,12.10
2019-05-20T07:05:35.180Z,12.10
2019-05-20T07:08:37.404Z,12.10
2019-05-20T07:11:39.683Z,12.10
2019-05-20T07:14:41.904Z,12.10
2019-05-20T07:17:44.143Z,12.10
2019-05-20T07:20:46.423Z,12.10
2019-05-20T07:23:52.163Z,12.10
2019-05-20T07:26:50.996Z,12.10
2019-05-20T07:29:53.209Z,12.10
2019-05-20T07:32:55.685Z,12.20
2019-05-20T07:35:57.972Z,12.20
2019-05-20T07:39:00.200Z,12.20
2019-05-20T07:42:02.473Z,12.20
2019-05-20T07:45:04.965Z,12.30
2019-05-20T07:48:07.535Z,12.30
2019-05-20T07:51:10.126Z,12.30
2019-05-20T07:54:12.518Z,12.30
2019-05-20T07:57:14.880Z,12.40
2019-05-20T08:00:17.253Z,12.40
2019-05-20T08:03:19.543Z,12.50
2019-05-20T08:06:21.867Z,12.50
2019-05-20T08:09:24.248Z,12.60
2019-05-20T08:12:26.543Z,12.60
2019-05-20T08:15:28.863Z,12.60
2019-05-20T08:18:31.119Z,12.70
2019-05-20T08:21:33.425Z,12.70
2019-05-20T08:24:35.697Z,12.70
2019-05-20T08:27:37.943Z,12.70
2019-05-20T08:30:40.227Z,12.70
2019-05-20T08:33:42.492Z,12.70
2019-05-20T08:36:44.797Z,12.70
2019-05-20T08:39:47.264Z,12.70
2019-05-20T08:42:49.480Z,12.70
2019-05-20T08:45:51.712Z,12.70
2019-05-20T08:48:53.957Z,12.70
2019-05-20T08:51:56.236Z,12.70
2019-05-20T08:54:59.894Z,12.70
2019-05-20T08:58:02.213Z,12.70
2019-05-20T09:01:04.657Z,12.70
2019-05-20T09:04:06.876Z,12.80
2019-05-20T09:07:09.415Z,12.80
2019-05-20T09:10:11.774Z,12.80
2019-05-20T09:13:14.117Z,12.80
2019-05-20T09:16:16.431Z,12.80
2019-05-20T09:19:18.716Z,12.80
2019-05-20T09:22:20.991Z,12.80
2019-05-20T09:25:29.479Z,12.80
2019-05-20T09:28:31.724Z,12.80
2019-05-20T09:31:34.069Z,12.80
2019-05-20T09:34:36.383Z,12.90
2019-05-20T09:37:38.634Z,12.90
2019-05-20T09:40:42.495Z,13.00
2019-05-20T09:43:44.773Z,13.00
2019-05-20T09:46:47.089Z,13.00
2019-05-20T09:49:49.352Z,13.00
2019-05-20T09:52:51.631Z,13.00
2019-05-20T09:55:53.945Z,12.90
2019-05-20T09:58:56.171Z,12.90
2019-05-20T10:01:58.390Z,13.00
2019-05-20T10:05:00.671Z,13.00
2019-05-20T10:08:02.916Z,13.00
2019-05-20T10:11:05.170Z,13.00
2019-05-20T10:14:07.547Z,13.00
2019-05-20T10:17:09.912Z,13.10
2019-05-20T10:20:12.203Z,13.10
2019-05-20T10:23:15.872Z,13.20
2019-05-20T10:26:16.804Z,13.20
2019-05-20T10:29:19.073Z,13.20
2019-05-20T10:32:21.344Z,13.30
2019-05-20T10:35:23.639Z,13.40
2019-05-20T10:38:25.899Z,13.40
2019-05-20T10:41:29.639Z,13.50
2019-05-20T10:44:30.481Z,13.50
2019-05-20T10:47:32.762Z,13.50
2019-05-20T10:50:35.028Z,13.50
2019-05-20T10:53:37.393Z,13.50
2019-05-20T10:56:39.691Z,13.50
2019-05-20T10:59:41.949Z,13.50
2019-05-20T11:02:44.248Z,13.60
2019-05-20T11:05:46.456Z,13.60
2019-05-20T11:08:48.691Z,13.70
2019-05-20T11:11:50.977Z,13.80
2019-05-20T11:14:53.239Z,13.90
2019-05-20T11:17:55.478Z,14.00
2019-05-20T11:20:57.765Z,14.10
2019-05-20T11:23:59.983Z,14.20
2019-05-20T11:27:02.261Z,14.20
2019-05-20T11:30:05.011Z,14.30
2019-05-20T11:33:07.219Z,14.30
2019-05-20T11:36:09.471Z,14.40
2019-05-20T11:39:11.736Z,14.40
2019-05-20T11:42:14.015Z,14.40
2019-05-20T11:45:16.320Z,14.40
2019-05-20T11:48:18.586Z,14.50
2019-05-20T11:51:20.876Z,14.50
2019-05-20T11:54:23.199Z,14.50
2019-05-20T11:57:25.517Z,14.50
2019-05-20T12:00:27.862Z,14.40
2019-05-20T12:03:30.135Z,14.40
2019-05-20T12:06:32.475Z,14.40
2019-05-20T12:09:48.212Z,14.30
2019-05-20T12:12:37.005Z,14.30
2019-05-20T12:15:39.299Z,14.30
2019-05-20T12:18:44.983Z,14.20
2019-05-20T12:21:43.991Z,14.20
2019-05-20T12:24:46.358Z,14.20
2019-05-20T12:27:48.639Z,14.20
2019-05-20T12:30:50.915Z,14.20
2019-05-20T12:33:53.227Z,14.20
2019-05-20T12:36:55.554Z,14.10
2019-05-20T12:40:06.910Z,14.10
2019-05-20T12:43:00.035Z,14.10
2019-05-20T12:46:02.323Z,14.00
2019-05-20T12:49:04.763Z,14.00
2019-05-20T12:52:06.924Z,13.90
2019-05-20T12:55:10.202Z,13.90
2019-05-20T12:58:11.528Z,13.80
2019-05-20T13:01:13.768Z,13.70
2019-05-20T13:04:16.050Z,13.60
2019-05-20T13:07:18.334Z,13.50
2019-05-20T13:10:31.694Z,13.50
2019-05-20T13:13:22.949Z,13.50
2019-05-20T13:16:25.293Z,13.50
2019-05-20T13:19:27.556Z,13.40
2019-05-20T13:22:29.842Z,13.40
2019-05-20T13:25:32.095Z,13.30
2019-05-20T13:28:34.412Z,13.20
2019-05-20T13:31:36.703Z,13.20
2019-05-20T13:34:38.984Z,13.10
2019-05-20T13:37:41.275Z,13.10
2019-05-20T13:40:46.834Z,13.00
2019-05-20T13:43:46.089Z,12.90
2019-05-20T13:46:48.420Z,12.80
2019-05-20T13:49:50.765Z,12.70
2019-05-20T13:52:53.041Z,12.60
2019-05-20T13:55:55.293Z,12.60
2019-05-20T13:58:57.561Z,12.50
2019-05-20T14:01:59.816Z,12.40
2019-05-20T14:05:02.190Z,12.50
2019-05-20T14:08:04.480Z,12.50
2019-05-20T14:11:06.726Z,12.50
2019-05-20T14:14:09.034Z,12.50
2019-05-20T14:17:11.270Z,12.50
2019-05-20T14:20:13.617Z,12.60
2019-05-20T14:23:15.899Z,12.60
2019-05-20T14:26:18.139Z,12.70
2019-05-20T14:29:20.403Z,12.70
2019-05-20T14:32:22.649Z,12.70
2019-05-20T14:35:24.964Z,12.70
2019-05-20T14:38:27.197Z,12.70
2019-05-20T14:41:29.538Z,12.70
2019-05-20T14:44:31.810Z,12.80
2019-05-20T14:47:34.094Z,12.80
2019-05-20T14:50:36.365Z,12.80
2019-05-20T14:53:38.593Z,12.90
2019-05-20T14:56:40.859Z,12.90
2019-05-20T14:59:43.090Z,12.90
2019-05-20T15:02:45.453Z,12.90
2019-05-20T15:05:47.729Z,12.90
2019-05-20T15:08:49.973Z,13.00
2019-05-20T15:11:52.247Z,13.00
2019-05-20T15:14:54.589Z,13.00
2019-05-20T15:17:56.876Z,13.00
2019-05-20T15:20:59.141Z,13.10
2019-05-20T15:24:01.616Z,13.00
2019-05-20T15:27:03.843Z,13.10
2019-05-20T15:30:06.168Z,13.00
2019-05-20T15:33:08.474Z,13.10
2019-05-20T15:36:10.718Z,13.10
2019-05-20T15:39:13.041Z,13.10
2019-05-20T15:42:15.299Z,13.10
2019-05-20T15:45:17.564Z,13.10
2019-05-20T15:48:19.851Z,13.10
2019-05-20T15:51:22.089Z,13.10
2019-05-20T15:54:24.413Z,13.10
2019-05-20T15:57:26.700Z,13.10
2019-05-20T16:00:29.021Z,13.10
2019-05-20T16:03:38.877Z,13.10
2019-05-20T16:06:41.222Z,13.10
2019-05-20T16:09:43.500Z,13.10
2019-05-20T16:12:45.747Z,13.10
2019-05-20T16:15:48.036Z,13.10
2019-05-20T16:18:50.657Z,13.10
2019-05-20T16:21:53.162Z,13.10
2019-05-20T16:24:55.388Z,13.00
2019-05-20T16:27:57.707Z,13.00
2019-05-20T16:31:00.055Z,12.90
2019-05-20T16:34:02.369Z,12.90
2019-05-20T16:37:04.699Z,12.90
2019-05-20T16:40:07.185Z,12.80
2019-05-20T16:43:09.618Z,12.80
2019-05-20T16:46:12.021Z,12.80
2019-05-20T16:49:14.284Z,12.80
2019-05-20T16:52:16.718Z,12.80
2019-05-20T16:55:19.703Z,12.80
2019-05-20T16:58:22.153Z,12.80
2019-05-20T17:01:24.397Z,12.80
2019-05-20T17:04:26.788Z,12.80
2019-05-20T17:07:29.115Z,12.80
2019-05-20T17:10:31.395Z,12.70
2019-05-20T17:13:33.641Z,12.70
2019-05-20T17:16:35.843Z,12.60
2019-05-20T17:19:38.134Z,12.60
2019-05-20T17:22:40.370Z,12.60
2019-05-20T17:25:42.704Z,12.50
2019-05-20T17:28:45.025Z,12.50
2019-05-20T17:31:53.249Z,12.40
2019-05-20T17:34:55.534Z,12.40
2019-05-20T17:37:57.789Z,12.40
2019-05-20T17:41:00.055Z,12.40
2019-05-20T17:44:02.421Z,12.40
2019-05-20T17:47:04.833Z,12.40
2019-05-20T17:50:07.154Z,12.40
2019-05-20T17:53:09.412Z,12.40
2019-05-20T17:56:11.736Z,12.40
2019-05-20T17:59:14.023Z,12.40
2019-05-20T18:02:16.300Z,12.40
2019-05-20T18:05:24.792Z,12.40
2019-05-20T18:08:30.355Z,12.40
2019-05-20T18:11:32.745Z,12.40
2019-05-20T18:14:35.010Z,12.30
2019-05-20T18:17:37.267Z,12.40
2019-05-20T18:20:39.586Z,12.30
2019-05-20T18:23:41.880Z,12.40
2019-05-20T18:26:44.302Z,12.40
2019-05-20T18:29:46.596Z,12.30
2019-05-20T18:32:48.921Z,12.40
2019-05-20T18:35:51.248Z,12.40
2019-05-20T18:38:53.449Z,12.30
2019-05-20T18:41:55.695Z,12.30
2019-05-20T18:44:58.004Z,12.30
2019-05-20T18:48:00.276Z,12.30
2019-05-20T18:51:02.583Z,12.30
2019-05-20T18:54:04.952Z,12.30
2019-05-20T18:57:07.431Z,12.30
2019-05-20T19:00:09.893Z,12.30
2019-05-20T19:03:12.191Z,12.30
2019-05-20T19:06:14.486Z,12.30
2019-05-20T19:09:16.881Z,12.30
2019-05-20T19:12:19.306Z,12.30
2019-05-20T19:15:21.676Z,12.30
2019-05-20T19:18:24.005Z,12.30
2019-05-20T19:21:26.232Z,12.40
2019-05-20T19:24:28.527Z,12.30
2019-05-20T19:27:30.759Z,12.30
2019-05-20T19:30:33.045Z,12.30
2019-05-20T19:33:35.317Z,12.20
2019-05-20T19:36:37.615Z,12.30
2019-05-20T19:39:39.819Z,12.30
2019-05-20T19:42:42.069Z,12.30
2019-05-20T19:45:44.299Z,12.30
2019-05-20T19:48:46.585Z,12.20
2019-05-20T19:51:48.899Z,12.20
2019-05-20T19:54:51.231Z,12.20
2019-05-20T19:57:54.139Z,12.20
2019-05-20T20:00:56.876Z,12.10
2019-05-20T20:03:58.776Z,12.10
2019-05-20T20:07:01.050Z,12.00
2019-05-20T20:10:03.623Z,12.00
2019-05-20T20:13:05.946Z,11.90
2019-05-20T20:16:08.340Z,11.90
2019-05-20T20:19:10.620Z,11.80
2019-05-20T20:22:12.910Z,11.80
2019-05-20T20:25:15.198Z,11.80
2019-05-20T20:28:17.408Z,11.80
2019-05-20T20:31:19.920Z,11.90
2019-05-20T20:34:22.266Z,11.80
2019-05-20T20:37:24.690Z,11.90
2019-05-20T20:40:26.927Z,11.80
2019-05-20T20:43:32.092Z,11.80
2019-05-20T20:46:31.426Z,11.80
2019-05-20T20:49:33.655Z,11.80
2019-05-20T20:52:43.531Z,11.80
2019-05-20T20:55:45.820Z,11.80
2019-05-20T20:58:48.174Z,11.70
2019-05-20T21:01:54.099Z,11.70
2019-05-20T21:04:52.781Z,11.70
2019-05-20T21:07:55.017Z,11.60
2019-05-20T21:10:57.266Z,11.50
2019-05-20T21:13:59.513Z,11.40
2019-05-20T21:17:01.789Z,11.40
2019-05-20T21:20:04.145Z,11.40
2019-05-20T21:23:06.383Z,11.40
2019-05-20T21:26:08.642Z,11.40
2019-05-20T21:29:11.859Z,11.40
2019-05-20T21:32:14.108Z,11.40
2019-05-20T21:35:16.351Z,11.50
2019-05-20T21:38:18.578Z,11.50
2019-05-20T21:41:20.861Z,11.50
2019-05-20T21:44:23.081Z,11.50
2019-05-20T21:47:26.186Z,11.60
2019-05-20T21:50:28.632Z,11.60
2019-05-20T21:53:30.879Z,11.60
2019-05-20T21:56:33.115Z,11.60
2019-05-20T21:59:35.415Z,11.60
2019-05-20T22:02:39.404Z,11.50
2019-05-20T22:05:41.860Z,11.50
2019-05-20T22:08:47.426Z,11.50
2019-05-20T22:11:49.862Z,11.50
2019-05-20T22:14:55.181Z,11.50
2019-05-20T22:18:00.944Z,11.40
2019-05-20T22:21:05.543Z,11.40
2019-05-20T22:24:09.667Z,11.40
2019-05-20T22:27:12.299Z,11.40
2019-05-20T22:30:14.619Z,11.40
2019-05-20T22:33:16.957Z,11.40
2019-05-20T22:36:19.350Z,11.40
2019-05-20T22:39:21.559Z,11.40
2019-05-20T22:42:23.788Z,11.40
2019-05-20T22:45:26.079Z,11.30
2019-05-20T22:48:28.405Z,11.30
2019-05-20T22:51:30.687Z,11.30
2019-05-20T22:54:32.945Z,11.30
2019-05-20T22:57:35.203Z,11.30
2019-05-20T23:00:37.692Z,11.30
2019-05-20T23:03:40.028Z,11.40
2019-05-20T23:06:42.315Z,11.40
2019-05-20T23:09:44.549Z,11.40
2019-05-20T23:12:46.840Z,11.40
2019-05-20T23:15:49.075Z,11.40
2019-05-20T23:18:51.329Z,11.40
2019-05-20T23:21:53.747Z,11.40
2019-05-20T23:24:56.016Z,11.50
2019-05-20T23:27:58.340Z,11.50
2019-05-20T23:31:00.602Z,11.50
2019-05-20T23:34:12.190Z,11.60
2019-05-20T23:37:05.101Z,11.60
2019-05-20T23:40:07.496Z,11.60
2019-05-20T23:43:09.759Z,11.60
2019-05-20T23:46:11.995Z,11.60
2019-05-20T23:49:14.282Z,11.60
2019-05-20T23:52:16.511Z,11.60
2019-05-20T23:55:18.771Z,11.70
2019-05-20T23:58:20.983Z,11.70
